createdAt,value
2022-12-26T16:50:49.860Z,11.85000038
2022-12-26T17:15:01.119Z,11.32999992
2022-12-26T17:17:00.246Z,11.02000046
2022-12-26T17:17:58.171Z,10.72000027
2022-12-26T17:18:50.911Z,10.43999958
2022-12-26T17:19:54.224Z,10.15999985
2022-12-26T17:50:49.571Z,11
2022-12-26T17:51:40.418Z,11.06000042
2022-12-26T17:52:41.808Z,10.81999969
2022-12-26T17:53:42.328Z,10.47000027
2022-12-26T17:54:43.289Z,10.11999989
2022-12-26T17:55:42.426Z,9.840000153
2022-12-26T17:57:27.801Z,9.600000381
2022-12-26T17:58:32.261Z,9.670000076
2022-12-26T17:59:28.732Z,9.579999924
2022-12-26T18:00:28.492Z,9.449999809
2022-12-26T18:02:32.736Z,9.06000042
2022-12-26T18:03:28.037Z,8.909999847
2022-12-26T18:04:30.301Z,8.720000267
2022-12-26T18:05:24.805Z,8.649999619
2022-12-26T18:07:19.824Z,8.420000076
2022-12-26T18:08:19.935Z,8.380000114
2022-12-26T18:09:16.005Z,8.300000191
2022-12-26T18:10:16.164Z,8.159999847
2022-12-26T18:12:09.401Z,8.020000458
2022-12-26T18:13:11.543Z,7.920000076
2022-12-26T18:14:11.592Z,7.869999886
2022-12-26T18:15:12.239Z,7.840000153
2022-12-26T18:17:07.384Z,7.699999809
2022-12-26T18:18:01.389Z,7.690000057
2022-12-26T18:19:05.850Z,7.639999866
2022-12-26T18:20:00.185Z,7.590000153
2022-12-26T18:21:05.845Z,7.579999924
2022-12-26T18:21:58.142Z,7.539999962
2022-12-26T18:22:58.442Z,7.489999771
2022-12-26T18:23:50.174Z,7.46999979
2022-12-26T18:25:35.045Z,7.510000229
2022-12-26T18:27:11.361Z,7.559999943
2022-12-26T18:28:12.550Z,7.510000229
2022-12-26T18:29:07.999Z,7.460000038
2022-12-26T18:30:09.808Z,7.400000095
2022-12-26T18:32:06.633Z,7.340000153
2022-12-26T18:33:01.252Z,7.320000172
2022-12-26T18:34:00.276Z,7.269999981
2022-12-26T18:34:55.665Z,7.260000229
2022-12-26T18:37:03.118Z,7.25
2022-12-26T18:38:00.485Z,7.239999771
2022-12-26T18:39:02.386Z,7.260000229
2022-12-26T18:40:02.338Z,7.25
2022-12-26T18:41:01.851Z,7.260000229
2022-12-26T18:41:56.414Z,7.21999979
2022-12-26T18:42:56.690Z,7.179999828
2022-12-26T18:43:53.154Z,7.159999847
2022-12-26T18:44:53.940Z,7.099999905
2022-12-26T18:46:52.272Z,7.070000172
2022-12-26T18:47:43.926Z,7.050000191
2022-12-26T18:48:49.226Z,7.03000021
2022-12-26T18:49:48.765Z,7.03000021
2022-12-26T18:51:50.798Z,7.190000057
2022-12-26T18:52:53.719Z,7.150000095
2022-12-26T18:53:49.375Z,7.150000095
2022-12-26T18:54:50.624Z,7.150000095
2022-12-26T18:56:45.404Z,7.050000191
2022-12-26T18:57:39.514Z,7.019999981
2022-12-26T18:58:42.856Z,7.03000021
2022-12-26T19:00:06.940Z,6.980000019
2022-12-26T19:00:50.198Z,7.010000229
2022-12-26T19:01:54.400Z,6.980000019
2022-12-26T19:02:54.636Z,6.949999809
2022-12-26T19:03:54.239Z,6.940000057
2022-12-26T19:04:54.098Z,6.900000095
2022-12-26T19:10:32.974Z,8.039999962
2022-12-26T19:11:43.568Z,8.210000038
2022-12-26T19:12:45.689Z,8.140000343
2022-12-26T19:13:42.759Z,7.949999809
2022-12-26T19:14:43.321Z,7.800000191
2022-12-26T19:16:43.652Z,7.480000019
2022-12-26T19:17:45.750Z,7.389999866
2022-12-26T19:18:42.652Z,7.260000229
2022-12-26T19:19:51.707Z,7.150000095
2022-12-26T19:21:50.377Z,6.96999979
2022-12-26T19:22:52.853Z,6.880000114
2022-12-26T19:23:54.473Z,6.800000191
2022-12-26T19:24:50.784Z,6.739999771
2022-12-26T19:25:56.339Z,6.78000021
2022-12-26T19:26:52.645Z,6.690000057
2022-12-26T19:27:52.087Z,6.639999866
2022-12-26T19:28:51.514Z,6.570000172
2022-12-26T19:29:56.233Z,6.519999981
2022-12-26T19:31:55.955Z,6.510000229
2022-12-26T19:32:57.462Z,6.460000038
2022-12-26T19:33:53.899Z,6.489999771
2022-12-26T19:35:01.260Z,6.440000057
2022-12-26T19:36:59.018Z,6.409999847
2022-12-26T19:37:52.491Z,6.389999866
2022-12-26T19:38:49.859Z,6.329999924
2022-12-26T19:40:35.959Z,6.420000076
2022-12-26T19:42:12.182Z,6.489999771
2022-12-26T19:43:13.397Z,6.449999809
2022-12-26T19:44:08.101Z,6.400000095
2022-12-26T19:45:09.583Z,6.380000114
2022-12-26T19:46:06.777Z,6.409999847
2022-12-26T19:47:12.633Z,6.340000153
2022-12-26T19:48:05.318Z,6.329999924
2022-12-26T19:49:06.662Z,6.329999924
2022-12-26T19:50:03.538Z,6.28000021
2022-12-26T19:51:03.480Z,6.329999924
2022-12-26T19:51:58.759Z,6.300000191
2022-12-26T19:53:01.750Z,6.269999981
2022-12-26T19:53:56.911Z,6.289999962
2022-12-26T19:54:56.693Z,6.300000191
2022-12-26T19:55:53.045Z,6.300000191
2022-12-26T19:56:55.015Z,6.28000021
2022-12-26T19:57:47.327Z,6.260000229
2022-12-26T19:58:53.248Z,6.25
2022-12-26T19:58:56.720Z,6.25
2022-12-26T19:59:48.976Z,6.260000229
2022-12-26T20:00:44.362Z,6.300000191
2022-12-26T20:01:44.884Z,6.309999943
2022-12-26T20:02:40.165Z,6.309999943
2022-12-26T20:03:43.336Z,6.320000172
2022-12-26T20:04:36.908Z,6.329999924
2022-12-26T20:06:38.002Z,6.320000172
2022-12-26T20:07:40.004Z,6.260000229
2022-12-26T20:08:41.564Z,6.199999809
2022-12-26T20:09:43.740Z,6.170000076
2022-12-26T20:10:47.794Z,6.179999828
2022-12-26T20:11:40.302Z,6.159999847
2022-12-26T20:12:44.607Z,6.159999847
2022-12-26T20:13:36.785Z,6.119999886
2022-12-26T20:14:38.687Z,6.119999886
2022-12-26T20:17:06.081Z,6.119999886
2022-12-26T20:17:09.674Z,6.119999886
2022-12-26T20:17:28.727Z,6.130000114
2022-12-26T20:18:27.694Z,6.170000076
2022-12-26T20:19:22.809Z,6.159999847
2022-12-26T20:20:28.691Z,6.159999847
2022-12-26T20:22:21.982Z,6.099999905
2022-12-26T20:23:18.266Z,6.050000191
2022-12-26T20:24:17.420Z,6.019999981
2022-12-26T20:25:13.122Z,5.989999771
2022-12-26T20:26:19.652Z,5.980000019
2022-12-26T20:27:22.342Z,5.940000057
2022-12-26T20:28:46.080Z,5.929999828
2022-12-26T20:29:32.241Z,5.929999828
2022-12-26T20:31:32.601Z,5.920000076
2022-12-26T20:32:27.916Z,5.869999886
2022-12-26T20:33:29.140Z,5.860000134
2022-12-26T20:34:24.859Z,5.840000153
2022-12-26T20:35:27.801Z,5.769999981
2022-12-26T20:36:25.269Z,5.78000021
2022-12-26T20:37:25.118Z,5.78000021
2022-12-26T20:38:31.743Z,5.760000229
2022-12-26T20:39:32.301Z,5.730000019
2022-12-26T20:40:30.826Z,5.710000038
2022-12-26T20:41:38.422Z,5.679999828
2022-12-26T20:42:35.747Z,5.659999847
2022-12-26T20:43:32.952Z,5.630000114
2022-12-26T20:44:32.713Z,5.590000153
2022-12-26T20:46:30.717Z,5.610000134
2022-12-26T20:47:34.869Z,5.639999866
2022-12-26T20:48:29.414Z,5.670000076
2022-12-26T20:49:34.179Z,5.659999847
